sensor_id;sensor_type;location;lat;lon;timestamp;P1;durP1;ratioP1;P2;durP2;ratioP2
46753;SDS011;32500;50.620;3.400;2022-07-25T00:00:28;64.93;;;53.65;;
46753;SDS011;32500;50.620;3.400;2022-07-25T00:02:53;67.10;;;53.53;;
46753;SDS011;32500;50.620;3.400;2022-07-25T00:05:19;65.47;;;53.42;;
46753;SDS011;32500;50.620;3.400;2022-07-25T00:07:45;64.47;;;53.42;;
46753;SDS011;32500;50.620;3.400;2022-07-25T00:10:10;64.40;;;53.47;;
46753;SDS011;32500;50.620;3.400;2022-07-25T00:12:36;64.63;;;53.58;;
46753;SDS011;32500;50.620;3.400;2022-07-25T00:15:02;64.13;;;52.75;;
46753;SDS011;32500;50.620;3.400;2022-07-25T00:17:29;64.30;;;53.42;;
46753;SDS011;32500;50.620;3.400;2022-07-25T00:19:54;65.03;;;53.28;;
46753;SDS011;32500;50.620;3.400;2022-07-25T00:22:20;64.43;;;52.95;;
46753;SDS011;32500;50.620;3.400;2022-07-25T00:24:46;65.20;;;53.35;;
46753;SDS011;32500;50.620;3.400;2022-07-25T00:27:11;64.35;;;52.83;;
46753;SDS011;32500;50.620;3.400;2022-07-25T00:29:37;63.38;;;52.95;;
46753;SDS011;32500;50.620;3.400;2022-07-25T00:32:03;63.75;;;53.30;;
46753;SDS011;32500;50.620;3.400;2022-07-25T00:34:29;64.20;;;52.97;;
46753;SDS011;32500;50.620;3.400;2022-07-25T00:36:54;64.20;;;53.25;;
46753;SDS011;32500;50.620;3.400;2022-07-25T00:39:20;64.80;;;53.17;;
46753;SDS011;32500;50.620;3.400;2022-07-25T00:41:46;63.97;;;53.00;;
46753;SDS011;32500;50.620;3.400;2022-07-25T00:47:06;65.65;;;53.30;;
46753;SDS011;32500;50.620;3.400;2022-07-25T00:49:32;63.85;;;53.05;;
46753;SDS011;32500;50.620;3.400;2022-07-25T00:51:58;64.07;;;52.95;;
46753;SDS011;32500;50.620;3.400;2022-07-25T00:54:24;64.57;;;53.17;;
46753;SDS011;32500;50.620;3.400;2022-07-25T00:56:50;64.95;;;53.05;;
46753;SDS011;32500;50.620;3.400;2022-07-25T00:59:16;64.40;;;53.33;;
46753;SDS011;32500;50.620;3.400;2022-07-25T01:01:42;64.10;;;53.00;;
46753;SDS011;32500;50.620;3.400;2022-07-25T01:04:09;64.18;;;52.95;;
46753;SDS011;32500;50.620;3.400;2022-07-25T01:06:35;64.03;;;53.05;;
46753;SDS011;32500;50.620;3.400;2022-07-25T01:09:01;63.67;;;52.63;;
46753;SDS011;32500;50.620;3.400;2022-07-25T01:11:26;64.00;;;53.00;;
46753;SDS011;32500;50.620;3.400;2022-07-25T01:13:52;63.63;;;52.83;;
46753;SDS011;32500;50.620;3.400;2022-07-25T01:16:18;64.38;;;53.20;;
46753;SDS011;32500;50.620;3.400;2022-07-25T01:18:43;64.22;;;52.95;;
46753;SDS011;32500;50.620;3.400;2022-07-25T01:21:09;63.40;;;52.78;;
46753;SDS011;32500;50.620;3.400;2022-07-25T01:23:35;63.65;;;53.00;;
46753;SDS011;32500;50.620;3.400;2022-07-25T01:26:01;64.78;;;53.40;;
46753;SDS011;32500;50.620;3.400;2022-07-25T01:28:27;63.88;;;52.83;;
46753;SDS011;32500;50.620;3.400;2022-07-25T01:30:52;64.15;;;52.65;;
46753;SDS011;32500;50.620;3.400;2022-07-25T01:33:19;64.47;;;52.92;;
46753;SDS011;32500;50.620;3.400;2022-07-25T01:35:46;64.22;;;53.05;;
46753;SDS011;32500;50.620;3.400;2022-07-25T01:38:12;64.32;;;52.78;;
46753;SDS011;32500;50.620;3.400;2022-07-25T01:40:38;63.67;;;53.00;;
46753;SDS011;32500;50.620;3.400;2022-07-25T01:43:05;63.33;;;52.75;;
46753;SDS011;32500;50.620;3.400;2022-07-25T01:45:30;64.80;;;53.25;;
46753;SDS011;32500;50.620;3.400;2022-07-25T01:47:56;63.78;;;53.28;;
46753;SDS011;32500;50.620;3.400;2022-07-25T01:50:22;63.95;;;52.92;;
46753;SDS011;32500;50.620;3.400;2022-07-25T01:52:48;63.03;;;52.53;;
46753;SDS011;32500;50.620;3.400;2022-07-25T01:55:14;63.60;;;52.65;;
46753;SDS011;32500;50.620;3.400;2022-07-25T01:57:40;64.15;;;52.90;;
46753;SDS011;32500;50.620;3.400;2022-07-25T02:00:06;63.63;;;52.78;;
46753;SDS011;32500;50.620;3.400;2022-07-25T02:02:34;63.33;;;52.40;;
46753;SDS011;32500;50.620;3.400;2022-07-25T02:05:00;66.13;;;52.78;;
46753;SDS011;32500;50.620;3.400;2022-07-25T02:07:25;63.40;;;52.63;;
46753;SDS011;32500;50.620;3.400;2022-07-25T02:09:51;63.80;;;52.78;;
46753;SDS011;32500;50.620;3.400;2022-07-25T02:12:17;63.38;;;52.65;;
46753;SDS011;32500;50.620;3.400;2022-07-25T02:14:42;63.08;;;52.53;;
46753;SDS011;32500;50.620;3.400;2022-07-25T02:17:08;65.55;;;53.05;;
46753;SDS011;32500;50.620;3.400;2022-07-25T02:19:34;64.05;;;52.65;;
46753;SDS011;32500;50.620;3.400;2022-07-25T02:22:00;63.78;;;52.35;;
46753;SDS011;32500;50.620;3.400;2022-07-25T02:24:26;63.50;;;52.55;;
46753;SDS011;32500;50.620;3.400;2022-07-25T02:26:51;63.45;;;52.67;;
46753;SDS011;32500;50.620;3.400;2022-07-25T02:29:17;64.68;;;52.70;;
46753;SDS011;32500;50.620;3.400;2022-07-25T02:31:43;63.58;;;52.42;;
46753;SDS011;32500;50.620;3.400;2022-07-25T02:34:08;63.28;;;52.53;;
46753;SDS011;32500;50.620;3.400;2022-07-25T02:36:34;63.30;;;52.80;;
46753;SDS011;32500;50.620;3.400;2022-07-25T02:38:59;64.07;;;52.75;;
46753;SDS011;32500;50.620;3.400;2022-07-25T02:41:25;64.82;;;53.00;;
46753;SDS011;32500;50.620;3.400;2022-07-25T02:43:51;62.70;;;52.30;;
46753;SDS011;32500;50.620;3.400;2022-07-25T02:46:17;63.80;;;52.78;;
46753;SDS011;32500;50.620;3.400;2022-07-25T02:48:43;63.00;;;52.28;;
46753;SDS011;32500;50.620;3.400;2022-07-25T02:51:08;63.55;;;52.53;;
46753;SDS011;32500;50.620;3.400;2022-07-25T02:53:34;62.80;;;52.28;;
46753;SDS011;32500;50.620;3.400;2022-07-25T02:56:00;63.13;;;52.58;;
46753;SDS011;32500;50.620;3.400;2022-07-25T02:58:25;63.00;;;52.28;;
46753;SDS011;32500;50.620;3.400;2022-07-25T03:00:51;64.40;;;52.58;;
46753;SDS011;32500;50.620;3.400;2022-07-25T03:03:16;62.92;;;52.38;;
46753;SDS011;32500;50.620;3.400;2022-07-25T03:05:42;62.97;;;52.65;;
46753;SDS011;32500;50.620;3.400;2022-07-25T03:08:08;63.58;;;52.25;;
46753;SDS011;32500;50.620;3.400;2022-07-25T03:10:33;63.58;;;52.45;;
46753;SDS011;32500;50.620;3.400;2022-07-25T03:13:00;63.75;;;52.20;;
46753;SDS011;32500;50.620;3.400;2022-07-25T03:15:26;63.15;;;52.40;;
46753;SDS011;32500;50.620;3.400;2022-07-25T03:17:51;63.25;;;52.42;;
46753;SDS011;32500;50.620;3.400;2022-07-25T03:20:17;63.47;;;52.42;;
46753;SDS011;32500;50.620;3.400;2022-07-25T03:22:43;62.90;;;52.38;;
46753;SDS011;32500;50.620;3.400;2022-07-25T03:25:09;62.70;;;51.90;;
46753;SDS011;32500;50.620;3.400;2022-07-25T03:27:35;63.08;;;52.03;;
46753;SDS011;32500;50.620;3.400;2022-07-25T03:30:01;62.50;;;52.15;;
46753;SDS011;32500;50.620;3.400;2022-07-25T03:32:27;63.53;;;52.28;;
46753;SDS011;32500;50.620;3.400;2022-07-25T03:34:52;62.75;;;52.15;;
46753;SDS011;32500;50.620;3.400;2022-07-25T03:37:18;63.58;;;52.15;;
46753;SDS011;32500;50.620;3.400;2022-07-25T03:39:44;62.53;;;52.00;;
46753;SDS011;32500;50.620;3.400;2022-07-25T03:42:09;62.50;;;51.85;;
46753;SDS011;32500;50.620;3.400;2022-07-25T03:44:35;62.45;;;51.92;;
46753;SDS011;32500;50.620;3.400;2022-07-25T03:47:02;62.90;;;51.75;;
46753;SDS011;32500;50.620;3.400;2022-07-25T03:49:28;62.58;;;51.83;;
46753;SDS011;32500;50.620;3.400;2022-07-25T03:51:53;61.85;;;51.47;;
46753;SDS011;32500;50.620;3.400;2022-07-25T03:54:19;62.42;;;52.25;;
46753;SDS011;32500;50.620;3.400;2022-07-25T03:56:46;63.70;;;52.22;;
46753;SDS011;32500;50.620;3.400;2022-07-25T03:59:13;62.65;;;51.78;;
46753;SDS011;32500;50.620;3.400;2022-07-25T04:01:41;62.85;;;52.17;;
46753;SDS011;32500;50.620;3.400;2022-07-25T04:04:07;61.97;;;51.63;;
46753;SDS011;32500;50.620;3.400;2022-07-25T04:06:34;62.58;;;51.85;;
46753;SDS011;32500;50.620;3.400;2022-07-25T04:09:00;62.38;;;52.03;;
46753;SDS011;32500;50.620;3.400;2022-07-25T04:11:26;62.33;;;51.70;;
46753;SDS011;32500;50.620;3.400;2022-07-25T04:13:53;62.47;;;51.88;;
46753;SDS011;32500;50.620;3.400;2022-07-25T04:16:19;63.10;;;52.17;;
46753;SDS011;32500;50.620;3.400;2022-07-25T04:18:45;62.13;;;51.88;;
46753;SDS011;32500;50.620;3.400;2022-07-25T04:21:11;62.95;;;52.15;;
46753;SDS011;32500;50.620;3.400;2022-07-25T04:23:36;62.90;;;51.72;;
46753;SDS011;32500;50.620;3.400;2022-07-25T04:26:02;63.28;;;52.08;;
46753;SDS011;32500;50.620;3.400;2022-07-25T04:28:28;63.72;;;51.58;;
46753;SDS011;32500;50.620;3.400;2022-07-25T04:30:54;63.58;;;51.97;;
46753;SDS011;32500;50.620;3.400;2022-07-25T04:33:20;65.78;;;51.63;;
46753;SDS011;32500;50.620;3.400;2022-07-25T04:35:46;63.50;;;52.28;;
46753;SDS011;32500;50.620;3.400;2022-07-25T04:38:12;63.50;;;52.50;;
46753;SDS011;32500;50.620;3.400;2022-07-25T04:40:37;64.22;;;52.22;;
46753;SDS011;32500;50.620;3.400;2022-07-25T04:43:03;64.00;;;52.10;;
46753;SDS011;32500;50.620;3.400;2022-07-25T04:45:30;65.05;;;52.33;;
46753;SDS011;32500;50.620;3.400;2022-07-25T04:47:56;64.97;;;52.35;;
46753;SDS011;32500;50.620;3.400;2022-07-25T04:50:22;63.92;;;52.35;;
46753;SDS011;32500;50.620;3.400;2022-07-25T04:52:48;66.60;;;52.50;;
46753;SDS011;32500;50.620;3.400;2022-07-25T04:55:14;64.03;;;52.45;;
46753;SDS011;32500;50.620;3.400;2022-07-25T04:57:40;66.40;;;52.85;;
46753;SDS011;32500;50.620;3.400;2022-07-25T05:00:06;66.88;;;52.85;;
46753;SDS011;32500;50.620;3.400;2022-07-25T05:02:33;68.88;;;53.00;;
46753;SDS011;32500;50.620;3.400;2022-07-25T05:04:59;67.28;;;53.08;;
46753;SDS011;32500;50.620;3.400;2022-07-25T05:07:26;66.55;;;52.80;;
46753;SDS011;32500;50.620;3.400;2022-07-25T05:09:52;66.80;;;52.97;;
46753;SDS011;32500;50.620;3.400;2022-07-25T05:12:18;67.68;;;52.72;;
46753;SDS011;32500;50.620;3.400;2022-07-25T05:14:43;66.35;;;52.67;;
46753;SDS011;32500;50.620;3.400;2022-07-25T05:17:09;66.72;;;53.35;;
46753;SDS011;32500;50.620;3.400;2022-07-25T05:19:35;65.78;;;52.88;;
46753;SDS011;32500;50.620;3.400;2022-07-25T05:22:01;67.78;;;54.15;;
46753;SDS011;32500;50.620;3.400;2022-07-25T05:24:27;69.40;;;53.85;;
46753;SDS011;32500;50.620;3.400;2022-07-25T05:26:53;68.20;;;52.85;;
46753;SDS011;32500;50.620;3.400;2022-07-25T05:29:18;73.55;;;52.88;;
46753;SDS011;32500;50.620;3.400;2022-07-25T05:31:44;67.00;;;52.40;;
46753;SDS011;32500;50.620;3.400;2022-07-25T05:34:10;67.03;;;52.30;;
46753;SDS011;32500;50.620;3.400;2022-07-25T05:36:36;64.40;;;51.63;;
46753;SDS011;32500;50.620;3.400;2022-07-25T05:39:02;68.03;;;52.10;;
46753;SDS011;32500;50.620;3.400;2022-07-25T05:41:28;66.47;;;51.63;;
46753;SDS011;32500;50.620;3.400;2022-07-25T05:43:53;64.20;;;51.65;;
46753;SDS011;32500;50.620;3.400;2022-07-25T05:46:19;64.30;;;51.58;;
46753;SDS011;32500;50.620;3.400;2022-07-25T05:48:45;65.53;;;51.53;;
46753;SDS011;32500;50.620;3.400;2022-07-25T05:51:10;65.05;;;51.63;;
46753;SDS011;32500;50.620;3.400;2022-07-25T05:53:36;65.70;;;51.63;;
46753;SDS011;32500;50.620;3.400;2022-07-25T05:56:02;69.10;;;51.90;;
46753;SDS011;32500;50.620;3.400;2022-07-25T05:58:29;66.00;;;51.70;;
46753;SDS011;32500;50.620;3.400;2022-07-25T06:00:54;63.38;;;51.60;;
46753;SDS011;32500;50.620;3.400;2022-07-25T06:03:20;65.07;;;51.25;;
46753;SDS011;32500;50.620;3.400;2022-07-25T06:05:46;65.88;;;51.35;;
46753;SDS011;32500;50.620;3.400;2022-07-25T06:08:12;62.28;;;51.25;;
46753;SDS011;32500;50.620;3.400;2022-07-25T06:10:39;64.88;;;51.53;;
46753;SDS011;32500;50.620;3.400;2022-07-25T06:13:05;64.13;;;51.33;;
46753;SDS011;32500;50.620;3.400;2022-07-25T06:15:31;64.30;;;51.65;;
46753;SDS011;32500;50.620;3.400;2022-07-25T06:17:57;68.95;;;51.83;;
46753;SDS011;32500;50.620;3.400;2022-07-25T06:20:22;66.18;;;52.08;;
46753;SDS011;32500;50.620;3.400;2022-07-25T06:22:48;65.32;;;51.42;;
46753;SDS011;32500;50.620;3.400;2022-07-25T06:25:14;68.13;;;51.95;;
46753;SDS011;32500;50.620;3.400;2022-07-25T06:27:40;65.72;;;51.95;;
46753;SDS011;32500;50.620;3.400;2022-07-25T06:30:06;67.80;;;52.15;;
46753;SDS011;32500;50.620;3.400;2022-07-25T06:32:33;67.57;;;51.83;;
46753;SDS011;32500;50.620;3.400;2022-07-25T06:34:59;65.80;;;51.90;;
46753;SDS011;32500;50.620;3.400;2022-07-25T06:37:25;65.88;;;51.55;;
46753;SDS011;32500;50.620;3.400;2022-07-25T06:39:50;63.50;;;51.40;;
46753;SDS011;32500;50.620;3.400;2022-07-25T06:42:17;65.95;;;51.35;;
46753;SDS011;32500;50.620;3.400;2022-07-25T06:44:42;62.05;;;50.92;;
46753;SDS011;32500;50.620;3.400;2022-07-25T06:47:08;65.32;;;51.03;;
46753;SDS011;32500;50.620;3.400;2022-07-25T06:49:40;63.55;;;51.15;;
46753;SDS011;32500;50.620;3.400;2022-07-25T06:52:06;62.97;;;51.15;;
46753;SDS011;32500;50.620;3.400;2022-07-25T06:54:33;67.50;;;51.00;;
46753;SDS011;32500;50.620;3.400;2022-07-25T06:56:59;63.00;;;50.95;;
46753;SDS011;32500;50.620;3.400;2022-07-25T06:59:24;67.97;;;51.08;;
46753;SDS011;32500;50.620;3.400;2022-07-25T07:01:50;64.32;;;50.97;;
46753;SDS011;32500;50.620;3.400;2022-07-25T07:04:16;61.15;;;50.65;;
46753;SDS011;32500;50.620;3.400;2022-07-25T07:06:41;63.42;;;50.80;;
46753;SDS011;32500;50.620;3.400;2022-07-25T07:09:07;61.50;;;50.75;;
46753;SDS011;32500;50.620;3.400;2022-07-25T07:11:34;64.72;;;50.83;;
46753;SDS011;32500;50.620;3.400;2022-07-25T07:14:00;64.35;;;51.13;;
46753;SDS011;32500;50.620;3.400;2022-07-25T07:16:29;62.88;;;50.97;;
46753;SDS011;32500;50.620;3.400;2022-07-25T07:18:56;63.78;;;51.15;;
46753;SDS011;32500;50.620;3.400;2022-07-25T07:21:22;63.63;;;51.00;;
46753;SDS011;32500;50.620;3.400;2022-07-25T07:23:48;64.20;;;51.17;;
46753;SDS011;32500;50.620;3.400;2022-07-25T07:26:14;63.72;;;51.05;;
46753;SDS011;32500;50.620;3.400;2022-07-25T07:28:40;63.25;;;51.08;;
46753;SDS011;32500;50.620;3.400;2022-07-25T07:31:05;64.45;;;51.05;;
46753;SDS011;32500;50.620;3.400;2022-07-25T07:33:31;63.60;;;51.10;;
46753;SDS011;32500;50.620;3.400;2022-07-25T07:35:57;64.63;;;50.92;;
46753;SDS011;32500;50.620;3.400;2022-07-25T07:38:24;62.53;;;51.15;;
46753;SDS011;32500;50.620;3.400;2022-07-25T07:40:50;62.30;;;51.13;;
46753;SDS011;32500;50.620;3.400;2022-07-25T07:43:17;63.25;;;50.83;;
46753;SDS011;32500;50.620;3.400;2022-07-25T07:45:42;62.15;;;50.95;;
46753;SDS011;32500;50.620;3.400;2022-07-25T07:48:08;62.35;;;50.90;;
46753;SDS011;32500;50.620;3.400;2022-07-25T07:50:34;62.67;;;50.97;;
46753;SDS011;32500;50.620;3.400;2022-07-25T07:53:00;62.60;;;51.35;;
46753;SDS011;32500;50.620;3.400;2022-07-25T07:55:26;64.50;;;51.25;;
46753;SDS011;32500;50.620;3.400;2022-07-25T07:58:15;61.83;;;50.75;;
46753;SDS011;32500;50.620;3.400;2022-07-25T08:00:43;62.23;;;51.17;;
46753;SDS011;32500;50.620;3.400;2022-07-25T08:03:10;61.38;;;50.85;;
46753;SDS011;32500;50.620;3.400;2022-07-25T08:05:43;62.17;;;51.08;;
46753;SDS011;32500;50.620;3.400;2022-07-25T08:08:10;62.20;;;51.22;;
46753;SDS011;32500;50.620;3.400;2022-07-25T08:10:38;62.53;;;50.92;;
46753;SDS011;32500;50.620;3.400;2022-07-25T08:13:16;62.92;;;51.15;;
46753;SDS011;32500;50.620;3.400;2022-07-25T08:15:43;64.93;;;51.42;;
46753;SDS011;32500;50.620;3.400;2022-07-25T08:18:10;62.72;;;51.33;;
46753;SDS011;32500;50.620;3.400;2022-07-25T08:20:36;62.70;;;51.38;;
46753;SDS011;32500;50.620;3.400;2022-07-25T08:23:02;65.75;;;51.53;;
46753;SDS011;32500;50.620;3.400;2022-07-25T08:25:28;63.17;;;51.63;;
46753;SDS011;32500;50.620;3.400;2022-07-25T08:27:54;65.25;;;51.33;;
46753;SDS011;32500;50.620;3.400;2022-07-25T08:30:20;62.53;;;51.50;;
46753;SDS011;32500;50.620;3.400;2022-07-25T08:32:50;63.50;;;51.65;;
46753;SDS011;32500;50.620;3.400;2022-07-25T08:35:20;63.28;;;51.53;;
46753;SDS011;32500;50.620;3.400;2022-07-25T08:37:47;63.38;;;51.70;;
46753;SDS011;32500;50.620;3.400;2022-07-25T08:40:14;63.95;;;51.55;;
46753;SDS011;32500;50.620;3.400;2022-07-25T08:42:41;63.17;;;51.38;;
46753;SDS011;32500;50.620;3.400;2022-07-25T08:45:07;63.30;;;51.65;;
46753;SDS011;32500;50.620;3.400;2022-07-25T08:47:37;64.00;;;51.80;;
46753;SDS011;32500;50.620;3.400;2022-07-25T08:50:05;62.88;;;51.55;;
46753;SDS011;32500;50.620;3.400;2022-07-25T08:52:32;63.10;;;51.58;;
46753;SDS011;32500;50.620;3.400;2022-07-25T08:55:00;63.80;;;51.80;;
46753;SDS011;32500;50.620;3.400;2022-07-25T08:57:27;63.90;;;51.75;;
46753;SDS011;32500;50.620;3.400;2022-07-25T08:59:55;63.60;;;51.65;;
46753;SDS011;32500;50.620;3.400;2022-07-25T09:02:23;62.22;;;51.58;;
46753;SDS011;32500;50.620;3.400;2022-07-25T09:04:50;63.50;;;51.65;;
46753;SDS011;32500;50.620;3.400;2022-07-25T09:07:15;62.80;;;51.85;;
46753;SDS011;32500;50.620;3.400;2022-07-25T09:09:41;64.93;;;51.67;;
46753;SDS011;32500;50.620;3.400;2022-07-25T09:12:08;63.92;;;51.72;;
46753;SDS011;32500;50.620;3.400;2022-07-25T09:14:43;65.03;;;51.83;;
46753;SDS011;32500;50.620;3.400;2022-07-25T09:17:09;65.80;;;51.63;;
46753;SDS011;32500;50.620;3.400;2022-07-25T09:19:34;62.80;;;51.78;;
46753;SDS011;32500;50.620;3.400;2022-07-25T09:22:02;63.28;;;51.67;;
46753;SDS011;32500;50.620;3.400;2022-07-25T09:24:29;63.25;;;51.65;;
46753;SDS011;32500;50.620;3.400;2022-07-25T09:26:57;64.95;;;52.05;;
46753;SDS011;32500;50.620;3.400;2022-07-25T09:29:26;64.28;;;51.97;;
46753;SDS011;32500;50.620;3.400;2022-07-25T09:31:52;65.00;;;51.95;;
46753;SDS011;32500;50.620;3.400;2022-07-25T09:34:32;63.58;;;51.65;;
46753;SDS011;32500;50.620;3.400;2022-07-25T09:37:01;65.60;;;51.95;;
46753;SDS011;32500;50.620;3.400;2022-07-25T09:39:34;65.70;;;52.03;;
46753;SDS011;32500;50.620;3.400;2022-07-25T09:42:14;63.35;;;51.35;;
46753;SDS011;32500;50.620;3.400;2022-07-25T09:44:40;63.45;;;51.80;;
46753;SDS011;32500;50.620;3.400;2022-07-25T09:47:12;64.20;;;52.05;;
46753;SDS011;32500;50.620;3.400;2022-07-25T09:49:42;63.63;;;51.58;;
46753;SDS011;32500;50.620;3.400;2022-07-25T09:52:09;62.92;;;51.72;;
46753;SDS011;32500;50.620;3.400;2022-07-25T09:54:36;64.05;;;51.70;;
46753;SDS011;32500;50.620;3.400;2022-07-25T09:57:02;62.50;;;51.72;;
46753;SDS011;32500;50.620;3.400;2022-07-25T09:59:28;63.33;;;51.75;;
46753;SDS011;32500;50.620;3.400;2022-07-25T10:07:29;63.13;;;51.83;;
46753;SDS011;32500;50.620;3.400;2022-07-25T10:09:55;64.55;;;51.80;;
46753;SDS011;32500;50.620;3.400;2022-07-25T10:12:21;64.40;;;51.65;;
46753;SDS011;32500;50.620;3.400;2022-07-25T10:15:04;63.15;;;51.85;;
46753;SDS011;32500;50.620;3.400;2022-07-25T10:17:32;64.90;;;51.67;;
46753;SDS011;32500;50.620;3.400;2022-07-25T10:19:59;63.08;;;51.70;;
46753;SDS011;32500;50.620;3.400;2022-07-25T10:22:35;63.40;;;51.33;;
46753;SDS011;32500;50.620;3.400;2022-07-25T10:25:06;63.83;;;51.60;;
46753;SDS011;32500;50.620;3.400;2022-07-25T10:27:44;63.95;;;51.53;;
46753;SDS011;32500;50.620;3.400;2022-07-25T10:35:39;63.53;;;51.70;;
46753;SDS011;32500;50.620;3.400;2022-07-25T10:38:05;62.88;;;51.67;;
46753;SDS011;32500;50.620;3.400;2022-07-25T10:40:36;63.67;;;51.65;;
46753;SDS011;32500;50.620;3.400;2022-07-25T10:45:42;62.78;;;51.65;;
46753;SDS011;32500;50.620;3.400;2022-07-25T10:48:29;63.10;;;51.80;;
46753;SDS011;32500;50.620;3.400;2022-07-25T10:53:38;63.53;;;51.85;;
46753;SDS011;32500;50.620;3.400;2022-07-25T10:56:13;63.55;;;51.78;;
46753;SDS011;32500;50.620;3.400;2022-07-25T11:03:46;63.13;;;51.55;;
46753;SDS011;32500;50.620;3.400;2022-07-25T11:06:13;63.08;;;51.85;;
46753;SDS011;32500;50.620;3.400;2022-07-25T11:08:39;63.05;;;51.72;;
46753;SDS011;32500;50.620;3.400;2022-07-25T11:11:06;63.75;;;51.80;;
46753;SDS011;32500;50.620;3.400;2022-07-25T11:13:36;64.68;;;52.17;;
46753;SDS011;32500;50.620;3.400;2022-07-25T11:16:03;64.32;;;51.95;;
46753;SDS011;32500;50.620;3.400;2022-07-25T11:18:33;65.38;;;52.13;;
46753;SDS011;32500;50.620;3.400;2022-07-25T11:21:02;63.60;;;51.85;;
46753;SDS011;32500;50.620;3.400;2022-07-25T11:23:30;64.15;;;52.03;;
46753;SDS011;32500;50.620;3.400;2022-07-25T11:26:11;63.92;;;51.92;;
46753;SDS011;32500;50.620;3.400;2022-07-25T11:31:03;64.63;;;51.97;;
46753;SDS011;32500;50.620;3.400;2022-07-25T11:33:29;64.07;;;52.05;;
46753;SDS011;32500;50.620;3.400;2022-07-25T11:35:55;64.90;;;52.25;;
46753;SDS011;32500;50.620;3.400;2022-07-25T11:38:23;63.78;;;52.15;;
46753;SDS011;32500;50.620;3.400;2022-07-25T11:40:50;63.80;;;52.22;;
46753;SDS011;32500;50.620;3.400;2022-07-25T11:43:19;65.45;;;52.10;;
46753;SDS011;32500;50.620;3.400;2022-07-25T11:45:54;67.75;;;52.17;;
46753;SDS011;32500;50.620;3.400;2022-07-25T11:48:29;63.97;;;52.15;;
46753;SDS011;32500;50.620;3.400;2022-07-25T11:50:56;64.13;;;52.08;;
46753;SDS011;32500;50.620;3.400;2022-07-25T11:53:22;63.00;;;51.92;;
46753;SDS011;32500;50.620;3.400;2022-07-25T11:55:49;63.90;;;52.03;;
46753;SDS011;32500;50.620;3.400;2022-07-25T11:58:16;64.45;;;52.28;;
46753;SDS011;32500;50.620;3.400;2022-07-25T12:00:43;65.13;;;51.92;;
46753;SDS011;32500;50.620;3.400;2022-07-25T12:03:11;64.25;;;52.13;;
46753;SDS011;32500;50.620;3.400;2022-07-25T12:05:38;63.70;;;51.78;;
46753;SDS011;32500;50.620;3.400;2022-07-25T12:10:38;63.45;;;52.05;;
46753;SDS011;32500;50.620;3.400;2022-07-25T12:13:04;64.40;;;51.88;;
46753;SDS011;32500;50.620;3.400;2022-07-25T12:15:34;65.25;;;51.95;;
46753;SDS011;32500;50.620;3.400;2022-07-25T12:18:02;65.38;;;51.88;;
46753;SDS011;32500;50.620;3.400;2022-07-25T12:20:29;63.17;;;51.83;;
46753;SDS011;32500;50.620;3.400;2022-07-25T12:22:58;63.78;;;52.03;;
46753;SDS011;32500;50.620;3.400;2022-07-25T12:25:27;63.80;;;52.15;;
46753;SDS011;32500;50.620;3.400;2022-07-25T12:27:53;64.32;;;51.85;;
46753;SDS011;32500;50.620;3.400;2022-07-25T12:30:19;64.28;;;52.03;;
46753;SDS011;32500;50.620;3.400;2022-07-25T12:32:45;64.32;;;52.03;;
46753;SDS011;32500;50.620;3.400;2022-07-25T12:35:12;64.97;;;51.80;;
46753;SDS011;32500;50.620;3.400;2022-07-25T12:37:39;65.60;;;52.13;;
46753;SDS011;32500;50.620;3.400;2022-07-25T12:40:05;63.83;;;52.00;;
46753;SDS011;32500;50.620;3.400;2022-07-25T12:42:32;64.28;;;51.97;;
46753;SDS011;32500;50.620;3.400;2022-07-25T12:44:58;63.63;;;52.10;;
46753;SDS011;32500;50.620;3.400;2022-07-25T12:47:24;63.70;;;52.05;;
46753;SDS011;32500;50.620;3.400;2022-07-25T12:49:51;63.75;;;52.13;;
46753;SDS011;32500;50.620;3.400;2022-07-25T12:52:17;63.92;;;52.25;;
46753;SDS011;32500;50.620;3.400;2022-07-25T12:54:43;64.35;;;51.60;;
46753;SDS011;32500;50.620;3.400;2022-07-25T12:57:09;65.15;;;52.33;;
46753;SDS011;32500;50.620;3.400;2022-07-25T12:59:35;63.45;;;51.95;;
46753;SDS011;32500;50.620;3.400;2022-07-25T13:02:00;64.57;;;51.97;;
46753;SDS011;32500;50.620;3.400;2022-07-25T13:04:26;64.30;;;51.97;;
46753;SDS011;32500;50.620;3.400;2022-07-25T13:06:56;65.38;;;51.92;;
46753;SDS011;32500;50.620;3.400;2022-07-25T13:09:23;63.90;;;51.77;;
46753;SDS011;32500;50.620;3.400;2022-07-25T13:11:49;63.85;;;51.72;;
46753;SDS011;32500;50.620;3.400;2022-07-25T13:14:15;64.85;;;52.00;;
46753;SDS011;32500;50.620;3.400;2022-07-25T13:16:42;64.35;;;52.08;;
46753;SDS011;32500;50.620;3.400;2022-07-25T13:19:08;65.30;;;52.05;;
46753;SDS011;32500;50.620;3.400;2022-07-25T13:21:33;64.30;;;52.10;;
46753;SDS011;32500;50.620;3.400;2022-07-25T13:23:59;63.03;;;51.85;;
46753;SDS011;32500;50.620;3.400;2022-07-25T13:26:25;63.30;;;52.05;;
46753;SDS011;32500;50.620;3.400;2022-07-25T13:28:50;63.00;;;51.65;;
46753;SDS011;32500;50.620;3.400;2022-07-25T13:31:17;63.83;;;51.83;;
46753;SDS011;32500;50.620;3.400;2022-07-25T13:33:44;64.20;;;52.05;;
46753;SDS011;32500;50.620;3.400;2022-07-25T13:36:10;63.70;;;51.88;;
46753;SDS011;32500;50.620;3.400;2022-07-25T13:38:36;63.30;;;51.72;;
46753;SDS011;32500;50.620;3.400;2022-07-25T13:41:05;63.65;;;52.05;;
46753;SDS011;32500;50.620;3.400;2022-07-25T13:43:34;65.90;;;52.03;;
46753;SDS011;32500;50.620;3.400;2022-07-25T13:46:00;63.50;;;52.00;;
46753;SDS011;32500;50.620;3.400;2022-07-25T13:48:26;63.45;;;51.95;;
46753;SDS011;32500;50.620;3.400;2022-07-25T13:50:52;65.43;;;51.95;;
46753;SDS011;32500;50.620;3.400;2022-07-25T13:53:22;63.50;;;51.85;;
46753;SDS011;32500;50.620;3.400;2022-07-25T13:55:48;64.13;;;51.65;;
46753;SDS011;32500;50.620;3.400;2022-07-25T13:58:14;64.43;;;51.78;;
46753;SDS011;32500;50.620;3.400;2022-07-25T14:00:40;64.53;;;52.03;;
46753;SDS011;32500;50.620;3.400;2022-07-25T14:03:07;65.50;;;52.17;;
46753;SDS011;32500;50.620;3.400;2022-07-25T14:05:33;63.65;;;51.88;;
46753;SDS011;32500;50.620;3.400;2022-07-25T14:08:02;63.50;;;51.83;;
46753;SDS011;32500;50.620;3.400;2022-07-25T14:10:27;63.90;;;52.05;;
46753;SDS011;32500;50.620;3.400;2022-07-25T14:12:53;64.18;;;51.90;;
46753;SDS011;32500;50.620;3.400;2022-07-25T14:15:19;63.67;;;52.10;;
46753;SDS011;32500;50.620;3.400;2022-07-25T14:17:44;63.50;;;52.10;;
46753;SDS011;32500;50.620;3.400;2022-07-25T14:20:10;64.03;;;51.88;;
46753;SDS011;32500;50.620;3.400;2022-07-25T14:22:37;63.33;;;51.90;;
46753;SDS011;32500;50.620;3.400;2022-07-25T14:25:03;63.70;;;51.85;;
46753;SDS011;32500;50.620;3.400;2022-07-25T14:27:30;64.25;;;51.97;;
46753;SDS011;32500;50.620;3.400;2022-07-25T14:29:57;63.08;;;51.78;;
46753;SDS011;32500;50.620;3.400;2022-07-25T14:32:23;63.38;;;51.80;;
46753;SDS011;32500;50.620;3.400;2022-07-25T14:34:49;64.75;;;51.83;;
46753;SDS011;32500;50.620;3.400;2022-07-25T14:37:16;63.58;;;51.85;;
46753;SDS011;32500;50.620;3.400;2022-07-25T14:39:44;65.40;;;52.15;;
46753;SDS011;32500;50.620;3.400;2022-07-25T14:42:09;65.53;;;52.00;;
46753;SDS011;32500;50.620;3.400;2022-07-25T14:44:36;63.63;;;51.90;;
46753;SDS011;32500;50.620;3.400;2022-07-25T14:47:02;64.70;;;51.85;;